createdAt,value
2022-09-05T00:01:35.225Z,14.17
2022-09-05T00:04:24.694Z,14.16
2022-09-05T00:07:03.561Z,13.60
2022-09-05T00:09:57.783Z,14.12
2022-09-05T00:12:32.584Z,13.95
2022-09-05T00:15:19.139Z,13.36
2022-09-05T00:21:36.780Z,13.90
2022-09-05T00:24:20.721Z,14.01
2022-09-05T00:24:36.939Z,13.71
2022-09-05T00:27:01.225Z,13.98
2022-09-05T00:31:05.440Z,13.96
2022-09-05T00:32:56.616Z,13.94
2022-09-05T00:35:43.968Z,13.93
2022-09-05T00:38:16.064Z,13.96
2022-09-05T00:40:49.193Z,13.92
2022-09-05T00:43:23.406Z,13.92
2022-09-05T00:45:59.633Z,13.79
2022-09-05T00:48:38.289Z,13.74
2022-09-05T00:51:29.222Z,13.87
2022-09-05T00:54:41.642Z,13.87
2022-09-05T00:57:30.784Z,13.85
2022-09-05T01:00:17.321Z,13.86
2022-09-05T01:03:28.584Z,13.84
2022-09-05T01:06:13.991Z,13.81
2022-09-05T01:09:13.737Z,13.72
2022-09-05T01:11:52.741Z,13.79
2022-09-05T01:14:41.383Z,13.79
2022-09-05T01:17:32.260Z,13.77
2022-09-05T01:20:25.952Z,13.75
2022-09-05T01:23:30.419Z,13.73
2022-09-05T01:26:28.000Z,12.86
2022-09-05T01:29:16.218Z,13.67
2022-09-05T01:32:01.115Z,13.66
2022-09-05T01:34:39.392Z,13.65
2022-09-05T01:37:26.609Z,13.21
2022-09-05T01:40:17.056Z,13.53
2022-09-05T01:42:51.746Z,13.51
2022-09-05T01:45:35.715Z,13.52
2022-09-05T01:48:11.846Z,13.63
2022-09-05T01:50:50.031Z,13.66
2022-09-05T01:53:40.301Z,13.68
2022-09-05T01:56:29.652Z,13.67
2022-09-05T01:59:11.494Z,13.68
2022-09-05T02:02:03.215Z,13.69
2022-09-05T02:04:49.677Z,13.69
2022-09-05T02:07:31.834Z,13.67
2022-09-05T02:10:29.336Z,13.68
2022-09-05T02:13:05.301Z,13.30
2022-09-05T02:15:53.840Z,13.67
2022-09-05T02:18:44.500Z,13.67
2022-09-05T02:21:22.776Z,13.66
2022-09-05T02:23:56.937Z,13.67
2022-09-05T02:26:32.430Z,13.66
2022-09-05T02:29:04.837Z,13.66
2022-09-05T02:31:45.555Z,13.47
2022-09-05T02:34:22.145Z,13.65
2022-09-05T02:36:56.805Z,13.63
2022-09-05T02:43:57.204Z,13.64
2022-09-05T02:45:06.736Z,13.61
2022-09-05T02:45:38.590Z,13.01
2022-09-05T02:48:18.409Z,13.58
2022-09-05T02:57:23.253Z,13.59
2022-09-05T02:57:26.146Z,13.57
2022-09-05T02:57:35.419Z,13.23
2022-09-05T03:00:09.297Z,13.50
2022-09-05T03:03:06.248Z,13.52
2022-09-05T03:05:39.044Z,13.33
2022-09-05T03:08:23.015Z,13.36
2022-09-05T03:11:01.030Z,13.36
2022-09-05T03:14:19.045Z,13.47
2022-09-05T03:17:18.583Z,13.49
2022-09-05T03:20:26.096Z,13.47
2022-09-05T03:23:30.793Z,13.45
2022-09-05T03:26:39.828Z,13.40
2022-09-05T03:29:39.410Z,13.35
2022-09-05T03:32:49.687Z,13.31
2022-09-05T03:35:52.949Z,13.27
2022-09-05T03:38:59.979Z,13.28
2022-09-05T03:41:50.664Z,13.26
2022-09-05T03:44:34.055Z,13.26
2022-09-05T03:47:39.403Z,13.28
2022-09-05T03:57:07.290Z,12.83
2022-09-05T03:57:18.606Z,13.10
2022-09-05T03:57:38.561Z,13.28
2022-09-05T04:00:09.124Z,13.04
2022-09-05T04:08:05.755Z,12.72
2022-09-05T04:08:15.212Z,13.25
2022-09-05T04:08:42.680Z,13.22
2022-09-05T04:11:17.185Z,13.22
2022-09-05T04:13:52.953Z,12.95
2022-09-05T04:16:26.186Z,13.24
2022-09-05T04:18:58.590Z,13.24
2022-09-05T04:21:30.957Z,13.26
2022-09-05T04:24:08.168Z,11.26
2022-09-05T04:26:49.710Z,13.29
2022-09-05T04:29:27.832Z,13.28
2022-09-05T04:32:18.222Z,11.87
2022-09-05T04:35:04.320Z,13.31
2022-09-05T04:37:48.660Z,13.31
2022-09-05T04:40:39.567Z,13.30
2022-09-05T04:43:12.129Z,12.95
2022-09-05T04:45:47.741Z,13.29
2022-09-05T04:48:21.629Z,13.15
2022-09-05T04:51:06.242Z,13.31
2022-09-05T04:53:58.343Z,13.33
2022-09-05T04:56:32.559Z,13.33
2022-09-05T05:01:06.880Z,13.35
2022-09-05T05:06:01.686Z,13.24
2022-09-05T05:06:11.394Z,13.31
2022-09-05T05:07:51.445Z,13.33
2022-09-05T05:13:49.120Z,13.35
2022-09-05T05:18:07.040Z,13.40
2022-09-05T05:18:14.229Z,13.38
2022-09-05T05:19:21.351Z,13.21
2022-09-05T05:21:54.244Z,12.94
2022-09-05T05:24:26.268Z,13.51
2022-09-05T05:27:03.343Z,13.32
2022-09-05T05:29:43.429Z,12.85
2022-09-05T05:32:31.684Z,13.61
2022-09-05T05:35:13.680Z,13.65
2022-09-05T05:37:46.480Z,13.68
2022-09-05T05:40:23.169Z,13.73
2022-09-05T05:42:52.139Z,13.77
2022-09-05T05:45:26.352Z,13.39
2022-09-05T05:47:58.493Z,13.87
2022-09-05T05:50:40.284Z,13.94
2022-09-05T05:53:42.777Z,14.00
2022-09-05T05:56:49.052Z,14.05
2022-09-05T05:59:38.205Z,14.11
2022-09-05T06:02:31.667Z,14.15
2022-09-05T06:05:25.962Z,14.20
2022-09-05T06:10:17.708Z,14.14
2022-09-05T06:15:06.399Z,14.26
2022-09-05T06:15:10.144Z,14.33
2022-09-05T06:18:28.477Z,14.38
2022-09-05T06:22:08.366Z,14.45
2022-09-05T06:25:17.604Z,14.51
2022-09-05T06:28:18.428Z,14.34
2022-09-05T06:31:02.124Z,14.61
2022-09-05T06:33:58.551Z,14.71
2022-09-05T06:36:49.161Z,14.77
2022-09-05T06:39:30.696Z,14.82
2022-09-05T06:42:43.014Z,14.90
2022-09-05T06:45:32.552Z,14.92
2022-09-05T06:48:13.630Z,14.79
2022-09-05T06:51:16.093Z,15.08
2022-09-05T06:54:09.174Z,14.89
2022-09-05T06:57:04.741Z,14.99
2022-09-05T07:00:17.632Z,15.28
2022-09-05T07:03:13.512Z,15.27
2022-09-05T07:05:50.463Z,15.27
2022-09-05T07:08:36.497Z,15.50
2022-09-05T07:11:17.177Z,15.59
2022-09-05T07:13:58.192Z,15.67
2022-09-05T07:16:39.210Z,15.74
2022-09-05T07:19:27.275Z,15.58
2022-09-05T07:22:47.860Z,15.90
2022-09-05T07:25:20.012Z,15.73
2022-09-05T07:28:28.235Z,16.07
2022-09-05T07:30:50.349Z,16.19
2022-09-05T07:33:21.656Z,16.27
2022-09-05T07:35:53.157Z,16.34
2022-09-05T07:38:38.073Z,16.32
2022-09-05T07:41:23.787Z,16.59
2022-09-05T07:43:57.093Z,16.69
2022-09-05T07:46:29.957Z,16.72
2022-09-05T07:49:02.946Z,16.84
2022-09-05T07:55:49.315Z,16.92
2022-09-05T07:56:51.466Z,17.06
2022-09-05T07:57:30.658Z,17.19
2022-09-05T08:00:07.872Z,17.30
2022-09-05T08:02:54.960Z,17.39
2022-09-05T08:05:34.574Z,17.50
2022-09-05T08:08:10.143Z,17.67
2022-09-05T08:11:24.317Z,17.78
2022-09-05T08:13:51.748Z,17.87
2022-09-05T08:16:23.976Z,17.93
2022-09-05T08:18:58.118Z,17.86
2022-09-05T08:21:39.861Z,18.05
2022-09-05T08:24:14.459Z,18.09
2022-09-05T08:26:47.830Z,18.14
2022-09-05T08:29:31.103Z,18.18
2022-09-05T08:32:08.692Z,18.23
2022-09-05T08:34:44.763Z,18.26
2022-09-05T08:37:21.659Z,18.31
2022-09-05T08:40:07.227Z,18.37
2022-09-05T08:43:29.498Z,18.40
2022-09-05T08:46:40.019Z,18.40
2022-09-05T08:48:49.570Z,18.44
2022-09-05T08:51:34.375Z,18.48
2022-09-05T08:54:17.933Z,18.19
2022-09-05T08:56:56.186Z,18.49
2022-09-05T08:59:36.957Z,18.56
2022-09-05T09:03:04.317Z,18.60
2022-09-05T09:06:12.871Z,18.62
2022-09-05T09:08:56.665Z,18.40
2022-09-05T09:11:36.765Z,18.64
2022-09-05T09:14:48.072Z,18.69
2022-09-05T09:17:33.584Z,18.58
2022-09-05T09:20:16.540Z,18.76
2022-09-05T09:22:55.804Z,18.78
2022-09-05T09:25:30.730Z,18.81
2022-09-05T09:28:45.287Z,18.86
2022-09-05T09:31:15.631Z,18.87
2022-09-05T09:33:51.352Z,18.96
2022-09-05T09:36:39.348Z,18.97
2022-09-05T09:39:38.648Z,18.87
2022-09-05T09:42:33.554Z,19.14
2022-09-05T09:45:39.075Z,19.20
2022-09-05T09:48:37.932Z,19.26
2022-09-05T09:51:26.974Z,19.32
2022-09-05T09:54:35.373Z,19.37
2022-09-05T09:57:36.241Z,19.40
2022-09-05T10:00:12.716Z,19.31
2022-09-05T10:06:54.140Z,19.44
2022-09-05T10:10:53.339Z,19.44
2022-09-05T10:11:08.804Z,19.45
2022-09-05T10:13:16.868Z,19.20
2022-09-05T10:16:17.194Z,18.28
2022-09-05T10:19:02.136Z,19.55
2022-09-05T10:25:18.575Z,19.58
2022-09-05T10:28:02.420Z,19.58
2022-09-05T10:31:39.878Z,19.58
2022-09-05T10:35:13.152Z,19.59
2022-09-05T10:36:32.450Z,19.57
2022-09-05T10:39:21.225Z,19.59
2022-09-05T10:41:57.217Z,19.56
2022-09-05T10:44:40.808Z,19.50
2022-09-05T10:47:20.509Z,19.52
2022-09-05T10:49:51.808Z,19.24
2022-09-05T10:52:31.707Z,19.51
2022-09-05T10:55:15.633Z,19.52
2022-09-05T10:58:02.113Z,19.51
2022-09-05T11:02:22.427Z,19.51
2022-09-05T11:03:50.432Z,19.49
2022-09-05T11:06:25.141Z,19.53
2022-09-05T11:09:06.287Z,19.60
2022-09-05T11:11:46.288Z,19.69
2022-09-05T11:14:36.690Z,19.27
2022-09-05T11:17:14.269Z,19.83
2022-09-05T11:19:45.869Z,19.76
2022-09-05T11:22:23.589Z,19.97
2022-09-05T11:24:56.968Z,20.07
2022-09-05T11:27:35.352Z,20.20
2022-09-05T11:30:07.787Z,20.37
2022-09-05T11:39:45.855Z,20.60
2022-09-05T11:40:02.466Z,20.89
2022-09-05T11:40:07.230Z,20.78
2022-09-05T11:42:24.119Z,21.08
2022-09-05T11:45:14.168Z,21.24
2022-09-05T11:48:21.176Z,21.32
2022-09-05T11:51:28.254Z,21.39
2022-09-05T11:54:41.169Z,21.36
2022-09-05T11:57:35.323Z,21.35
2022-09-05T12:00:31.318Z,21.30
2022-09-05T12:04:00.109Z,21.20
2022-09-05T12:06:55.024Z,21.27
2022-09-05T12:09:36.679Z,21.21
2022-09-05T12:12:39.130Z,21.20
2022-09-05T12:15:27.024Z,21.04
2022-09-05T12:18:24.400Z,20.99
2022-09-05T12:21:03.042Z,21.18
2022-09-05T12:25:15.168Z,21.21
2022-09-05T12:27:44.450Z,21.30
2022-09-05T12:29:48.989Z,21.55
2022-09-05T12:33:40.074Z,21.76
2022-09-05T12:36:05.996Z,21.77
2022-09-05T12:41:36.421Z,21.78
2022-09-05T12:41:44.159Z,21.65
2022-09-05T12:44:44.847Z,21.43
2022-09-05T12:47:20.076Z,21.80
2022-09-05T12:50:15.215Z,21.82
2022-09-05T12:52:46.926Z,21.68
2022-09-05T12:55:27.055Z,21.83
2022-09-05T13:02:55.277Z,21.80
2022-09-05T13:03:06.201Z,21.80
2022-09-05T13:04:15.713Z,21.66
2022-09-05T13:06:42.871Z,21.56
2022-09-05T13:09:21.800Z,21.76
2022-09-05T13:14:49.703Z,21.69
2022-09-05T13:15:12.502Z,21.82
2022-09-05T13:17:51.627Z,21.79
2022-09-05T13:20:33.443Z,21.88
2022-09-05T13:23:15.327Z,21.91
2022-09-05T13:25:50.779Z,21.91
2022-09-05T13:28:23.891Z,21.94
2022-09-05T13:37:56.483Z,21.96
2022-09-05T13:38:07.411Z,22.00
2022-09-05T13:38:27.536Z,21.98
2022-09-05T13:39:47.644Z,22.06
2022-09-05T13:42:20.088Z,21.99
2022-09-05T13:44:52.756Z,21.78
2022-09-05T13:47:53.921Z,22.02
2022-09-05T13:50:27.238Z,22.04
2022-09-05T13:53:01.240Z,22.14
2022-09-05T13:55:46.011Z,22.21
2022-09-05T13:58:22.269Z,22.21
2022-09-05T14:01:17.735Z,22.21
2022-09-05T14:07:51.887Z,22.69
2022-09-05T14:10:46.007Z,22.87
2022-09-05T14:13:24.529Z,22.94
2022-09-05T14:15:59.612Z,23.18
2022-09-05T14:18:33.950Z,23.28
2022-09-05T14:21:19.441Z,23.24
2022-09-05T14:23:54.088Z,23.09
2022-09-05T14:26:31.840Z,23.31
2022-09-05T14:29:07.901Z,23.16
2022-09-05T14:37:35.182Z,23.10
2022-09-05T14:37:52.613Z,22.73
2022-09-05T14:38:09.336Z,22.91
2022-09-05T14:41:17.089Z,22.90
2022-09-05T14:44:15.645Z,22.86
2022-09-05T14:47:35.326Z,22.85
2022-09-05T14:50:39.717Z,22.87
2022-09-05T14:57:23.167Z,22.87
2022-09-05T15:02:48.794Z,23.09
2022-09-05T15:03:00.104Z,23.26
2022-09-05T15:05:19.140Z,23.03
2022-09-05T15:07:49.968Z,23.12
2022-09-05T15:12:16.832Z,23.10
2022-09-05T15:13:25.613Z,22.79
2022-09-05T15:16:02.968Z,22.97
2022-09-05T15:18:34.899Z,22.84
2022-09-05T15:21:33.824Z,22.87
2022-09-05T15:24:14.979Z,22.74
2022-09-05T15:26:55.244Z,22.70
2022-09-05T15:29:26.020Z,22.62
2022-09-05T15:32:14.753Z,22.57
2022-09-05T15:34:43.228Z,22.49
2022-09-05T15:37:30.867Z,22.34
2022-09-05T15:40:22.482Z,22.41
2022-09-05T15:42:57.148Z,22.15
2022-09-05T15:45:28.572Z,22.31
2022-09-05T15:48:08.799Z,22.30
2022-09-05T15:50:43.682Z,22.26
2022-09-05T15:53:22.089Z,22.23
2022-09-05T15:56:00.291Z,22.21
2022-09-05T15:58:52.280Z,21.91
2022-09-05T16:01:46.468Z,22.11
2022-09-05T16:09:01.731Z,22.07
2022-09-05T16:10:40.809Z,21.91
2022-09-05T16:10:40.812Z,22.01
2022-09-05T16:12:54.072Z,21.69
2022-09-05T16:16:50.122Z,21.78
2022-09-05T16:23:19.307Z,21.46
2022-09-05T16:23:26.565Z,21.91
2022-09-05T16:24:06.202Z,21.86
2022-09-05T16:26:41.337Z,21.85
2022-09-05T16:29:25.303Z,21.84
2022-09-05T16:32:10.572Z,21.79
2022-09-05T16:34:45.566Z,21.76
2022-09-05T16:37:15.727Z,21.54
2022-09-05T16:39:50.331Z,21.73
2022-09-05T16:42:45.860Z,21.70
2022-09-05T16:45:34.015Z,21.64
2022-09-05T16:48:26.760Z,21.61
2022-09-05T16:51:15.263Z,21.26
2022-09-05T16:53:58.503Z,21.38
2022-09-05T16:56:30.829Z,21.32
2022-09-05T16:59:02.666Z,21.35
2022-09-05T17:01:48.025Z,21.35
2022-09-05T17:04:28.967Z,21.12
2022-09-05T17:07:00.795Z,21.14
2022-09-05T17:09:38.837Z,21.25
2022-09-05T17:12:12.299Z,21.22
2022-09-05T17:14:43.642Z,21.04
2022-09-05T17:18:04.798Z,20.81
2022-09-05T17:20:14.976Z,21.05
2022-09-05T17:25:04.083Z,21.02
2022-09-05T17:29:33.767Z,20.95
2022-09-05T17:29:48.872Z,20.91
2022-09-05T17:31:53.597Z,20.82
2022-09-05T17:34:47.684Z,20.69
2022-09-05T17:37:47.728Z,20.74
2022-09-05T17:40:48.399Z,20.69
2022-09-05T17:43:28.807Z,20.63
2022-09-05T17:46:14.334Z,20.59
2022-09-05T17:49:18.698Z,20.53
2022-09-05T17:52:18.406Z,20.44
2022-09-05T17:54:52.493Z,20.38
2022-09-05T17:57:42.470Z,20.33
2022-09-05T18:00:49.731Z,20.26
2022-09-05T18:04:18.489Z,20.18
2022-09-05T18:06:59.342Z,20.08
2022-09-05T18:10:14.699Z,19.59
2022-09-05T18:13:32.012Z,19.99
2022-09-05T18:16:12.010Z,19.97
2022-09-05T18:19:28.193Z,19.90
2022-09-05T18:24:42.009Z,19.68
2022-09-05T18:28:03.139Z,19.67
2022-09-05T18:30:29.419Z,19.70
2022-09-05T18:33:55.702Z,19.66
2022-09-05T18:36:34.161Z,19.58
2022-09-05T18:39:39.863Z,19.52
2022-09-05T18:42:26.032Z,19.47
2022-09-05T18:45:14.777Z,19.44
2022-09-05T18:47:52.745Z,19.39
2022-09-05T18:50:32.491Z,19.37
2022-09-05T18:53:10.520Z,19.33
2022-09-05T18:56:12.955Z,19.30
2022-09-05T18:58:52.045Z,19.24
2022-09-05T19:01:36.594Z,19.22
2022-09-05T19:04:10.172Z,19.20
2022-09-05T19:07:07.903Z,19.01
2022-09-05T19:09:38.373Z,19.12
2022-09-05T19:12:33.949Z,19.10
2022-09-05T19:15:06.989Z,19.05
2022-09-05T19:17:47.147Z,19.03
2022-09-05T19:20:33.135Z,18.99
2022-09-05T19:23:11.739Z,18.68
2022-09-05T19:25:44.228Z,18.59
2022-09-05T19:35:55.787Z,18.74
2022-09-05T19:37:08.026Z,18.79
2022-09-05T19:37:22.778Z,18.59
2022-09-05T19:43:24.158Z,18.73
2022-09-05T19:47:42.046Z,18.64
2022-09-05T19:47:46.418Z,18.65
2022-09-05T19:48:26.115Z,18.49
2022-09-05T19:50:57.825Z,18.60
2022-09-05T19:53:26.731Z,18.32
2022-09-05T19:55:55.505Z,18.58
2022-09-05T19:58:25.101Z,18.55
2022-09-05T20:01:03.787Z,18.52
2022-09-05T20:03:38.168Z,18.51
2022-09-05T20:06:24.760Z,18.30
2022-09-05T20:09:10.434Z,18.36
2022-09-05T20:11:46.429Z,18.26
2022-09-05T20:14:24.604Z,18.43
2022-09-05T20:16:57.563Z,18.42
2022-09-05T20:19:29.962Z,18.41
2022-09-05T20:22:48.012Z,18.42
2022-09-05T20:24:56.544Z,18.15
2022-09-05T20:27:28.138Z,18.28
2022-09-05T20:29:59.434Z,18.25
2022-09-05T20:32:39.260Z,18.38
2022-09-05T20:37:18.465Z,17.74
2022-09-05T20:43:16.109Z,18.16
2022-09-05T20:43:27.222Z,17.79
2022-09-05T20:43:58.226Z,18.12
2022-09-05T20:52:31.553Z,18.26
2022-09-05T20:54:08.934Z,18.24
2022-09-05T20:54:20.953Z,18.20
2022-09-05T20:55:38.601Z,18.15
2022-09-05T20:58:11.078Z,18.02
2022-09-05T21:01:02.435Z,17.98
2022-09-05T21:03:37.145Z,18.04
2022-09-05T21:06:14.461Z,18.07
2022-09-05T21:08:43.437Z,18.04
2022-09-05T21:11:13.737Z,18.04
2022-09-05T21:13:52.434Z,18.02
2022-09-05T21:16:29.204Z,17.99
2022-09-05T21:18:58.001Z,17.96
2022-09-05T21:21:30.177Z,17.92
2022-09-05T21:24:16.502Z,17.90
2022-09-05T21:26:49.887Z,17.85
2022-09-05T21:29:27.484Z,17.82
2022-09-05T21:32:09.762Z,17.54
2022-09-05T21:34:45.398Z,17.70
2022-09-05T21:37:16.275Z,17.67
2022-09-05T21:39:58.429Z,17.65
2022-09-05T21:47:35.463Z,17.13
2022-09-05T21:47:42.353Z,17.57
2022-09-05T21:48:12.009Z,17.10
2022-09-05T21:50:43.047Z,17.53
2022-09-05T21:55:13.431Z,17.50
2022-09-05T21:59:19.473Z,17.47
2022-09-05T21:59:29.832Z,17.43
2022-09-05T22:01:54.973Z,17.39
2022-09-05T22:04:23.810Z,17.35
2022-09-05T22:06:54.323Z,17.31
2022-09-05T22:09:23.970Z,16.68
2022-09-05T22:11:52.832Z,16.78
2022-09-05T22:14:24.655Z,17.31
2022-09-05T22:16:56.515Z,16.93
2022-09-05T22:19:35.255Z,17.30
2022-09-05T22:22:16.613Z,17.27
2022-09-05T22:24:52.128Z,16.92
2022-09-05T22:27:26.478Z,17.00
2022-09-05T22:29:57.526Z,17.17
2022-09-05T22:32:35.229Z,16.79
2022-09-05T22:35:27.895Z,16.68
2022-09-05T22:38:01.236Z,17.02
2022-09-05T22:40:32.250Z,16.72
2022-09-05T22:43:02.720Z,16.89
2022-09-05T22:45:34.789Z,16.92
2022-09-05T22:48:09.303Z,16.85
2022-09-05T22:50:38.428Z,16.80
2022-09-05T22:53:08.748Z,16.66
2022-09-05T22:55:37.920Z,16.73
2022-09-05T22:58:07.207Z,16.69
2022-09-05T23:00:37.938Z,16.62
2022-09-05T23:03:08.286Z,16.55
2022-09-05T23:05:37.193Z,16.49
2022-09-05T23:08:07.377Z,16.49
2022-09-05T23:10:37.243Z,16.46
2022-09-05T23:13:07.150Z,16.41
2022-09-05T23:15:37.677Z,15.47
2022-09-05T23:18:06.672Z,16.38
2022-09-05T23:20:36.479Z,16.39
2022-09-05T23:23:07.311Z,16.38
2022-09-05T23:25:36.893Z,16.36
2022-09-05T23:28:09.494Z,16.32
2022-09-05T23:30:41.209Z,15.31
2022-09-05T23:33:11.040Z,15.90
2022-09-05T23:35:40.099Z,14.46
2022-09-05T23:38:11.679Z,16.10
2022-09-05T23:40:40.588Z,16.13
2022-09-05T23:43:09.309Z,16.11
2022-09-05T23:45:39.197Z,16.07
2022-09-05T23:48:07.642Z,16.04
2022-09-05T23:50:36.476Z,16.03
2022-09-05T23:53:06.200Z,16.00
2022-09-05T23:55:34.812Z,15.96
2022-09-05T23:58:03.543Z,15.64
